createdAt,value
2023-07-24T00:03:29.599Z,97122.75
2023-07-24T00:13:32.808Z,97098.31
2023-07-24T00:23:36.458Z,97061.22
2023-07-24T00:33:40.305Z,97046.56
2023-07-24T00:43:43.249Z,97034.88
2023-07-24T00:53:46.349Z,97032.78
2023-07-24T01:03:49.428Z,97028.97
2023-07-24T01:14:06.405Z,97027.38
2023-07-24T01:24:26.679Z,97000.94
2023-07-24T01:34:29.616Z,96996.28
2023-07-24T01:44:32.701Z,96996.94
2023-07-24T01:54:35.573Z,96983.16
2023-07-24T02:04:38.054Z,96986.41
2023-07-24T02:14:40.403Z,96980.88
2023-07-24T02:24:43.576Z,96942.38
2023-07-24T02:34:46.637Z,96949.72
2023-07-24T02:44:49.188Z,96952.84
2023-07-24T02:54:51.730Z,96967.03
2023-07-24T03:04:54.102Z,96963.69
2023-07-24T03:14:56.545Z,96951.81
2023-07-24T03:24:59.249Z,96959.84
2023-07-24T03:35:01.633Z,96935.84
2023-07-24T03:45:04.771Z,96955.91
2023-07-24T03:55:09.593Z,96991.37
2023-07-24T04:05:12.650Z,97015.59
2023-07-24T04:15:15.410Z,97101.53
2023-07-24T04:25:17.947Z,97161.78
2023-07-24T04:35:21.029Z,97165.13
2023-07-24T04:45:24.295Z,97127.66
2023-07-24T04:55:27.396Z,97102.13
2023-07-24T05:05:30.222Z,96996.34
2023-07-24T05:15:33.418Z,97013.87
2023-07-24T05:25:36.283Z,97019.06
2023-07-24T05:35:39.512Z,97058.56
2023-07-24T05:45:42.819Z,97084.59
2023-07-24T05:55:46.354Z,97062.00
2023-07-24T06:05:53.970Z,97061.91
2023-07-24T06:15:56.564Z,97063.97
2023-07-24T06:25:59.397Z,97094.47
2023-07-24T06:36:02.662Z,97119.78
2023-07-24T06:46:07.068Z,97135.69
2023-07-24T06:56:11.180Z,97145.09
2023-07-24T07:16:23.801Z,97096.53
2023-07-24T07:26:27.003Z,97117.50
2023-07-24T07:36:30.597Z,97084.75
2023-07-24T07:46:34.392Z,97068.63
2023-07-24T07:56:37.664Z,97010.12
2023-07-24T08:06:40.529Z,97006.13
2023-07-24T08:16:43.326Z,96977.44
2023-07-24T08:26:46.900Z,96980.41
2023-07-24T08:36:50.567Z,96970.13
2023-07-24T08:46:54.311Z,96960.19
2023-07-24T08:56:57.952Z,96956.47
2023-07-24T09:07:01.049Z,96996.66
2023-07-24T09:17:09.248Z,97067.44
2023-07-24T09:27:13.982Z,97123.19
2023-07-24T09:37:33.079Z,97108.59
2023-07-24T09:47:55.076Z,97077.97
2023-07-24T09:58:02.294Z,97108.22
2023-07-24T10:08:06.957Z,97136.59
2023-07-24T10:18:11.941Z,97131.97
2023-07-24T10:28:17.982Z,97033.06
2023-07-24T10:38:36.232Z,97057.03
2023-07-24T10:48:45.801Z,97016.22
2023-07-24T10:58:48.727Z,97037.31
2023-07-24T11:09:02.436Z,97051.31
2023-07-24T11:19:09.811Z,97097.03
2023-07-24T11:29:15.564Z,97081.16
2023-07-24T11:39:25.703Z,97061.59
2023-07-24T11:49:32.611Z,97036.34
2023-07-24T11:59:41.010Z,97042.09
2023-07-24T12:09:54.089Z,97022.72
2023-07-24T12:19:57.430Z,97032.22
2023-07-24T12:30:01.148Z,97043.91
2023-07-24T12:40:05.473Z,97036.78
2023-07-24T12:50:09.094Z,97008.09
2023-07-24T13:00:13.114Z,96998.03
2023-07-24T13:10:16.312Z,97023.00
2023-07-24T13:20:19.798Z,96993.53
2023-07-24T13:30:22.966Z,97027.22
2023-07-24T13:40:27.416Z,97023.94
2023-07-24T13:50:30.686Z,97005.97
2023-07-24T14:00:34.055Z,97027.00
2023-07-24T14:10:37.259Z,96991.72
2023-07-24T14:20:41.925Z,96958.19
2023-07-24T14:30:44.786Z,96949.56
2023-07-24T14:40:48.663Z,96983.03
2023-07-24T14:50:51.678Z,96950.47
2023-07-24T15:00:58.362Z,96908.06
2023-07-24T15:11:02.034Z,96915.59
2023-07-24T15:21:06.703Z,96932.13
2023-07-24T15:31:12.616Z,96942.19
2023-07-24T15:41:16.550Z,96946.28
2023-07-24T15:51:19.791Z,96946.06
2023-07-24T16:01:25.789Z,96950.34
2023-07-24T16:11:30.414Z,96956.16
2023-07-24T16:21:34.294Z,96970.19
2023-07-24T16:31:38.052Z,96952.28
2023-07-24T16:41:41.482Z,96930.50
2023-07-24T16:51:44.812Z,96949.31
2023-07-24T17:01:47.750Z,96931.63
2023-07-24T17:11:52.837Z,96921.94
2023-07-24T17:21:56.825Z,96925.72
2023-07-24T17:32:01.969Z,96921.81
2023-07-24T17:42:05.491Z,96912.81
2023-07-24T17:52:10.433Z,96918.34
2023-07-24T18:02:13.353Z,96912.47
2023-07-24T18:12:16.428Z,96899.56
2023-07-24T18:22:20.828Z,96904.25
2023-07-24T18:32:25.888Z,96896.75
2023-07-24T18:42:29.752Z,96885.28
2023-07-24T18:52:32.822Z,96880.47
2023-07-24T19:02:35.638Z,96881.41
2023-07-24T19:12:40.683Z,96881.53
2023-07-24T19:22:43.844Z,96879.94
2023-07-24T19:32:46.700Z,96883.03
2023-07-24T19:42:49.719Z,96909.75
2023-07-24T19:52:52.785Z,96910.66
2023-07-24T20:02:57.133Z,96915.78
2023-07-24T20:12:59.945Z,96937.37
2023-07-24T20:23:03.561Z,96925.62
2023-07-24T20:33:07.320Z,96928.03
2023-07-24T20:43:10.512Z,96928.63
2023-07-24T20:53:13.471Z,96934.84
2023-07-24T21:03:16.159Z,96930.94
2023-07-24T21:13:19.500Z,96923.91
2023-07-24T21:23:22.404Z,96921.94
2023-07-24T21:33:25.068Z,96945.59
2023-07-24T21:43:27.915Z,96929.56
2023-07-24T21:53:30.798Z,96938.09
2023-07-24T22:03:33.817Z,96947.28
2023-07-24T22:13:36.633Z,96953.38
2023-07-24T22:23:38.968Z,96936.19
2023-07-24T22:33:41.314Z,96931.88
2023-07-24T22:43:43.661Z,96919.81
2023-07-24T22:53:46.095Z,96910.16
2023-07-24T23:03:49.834Z,96893.00
2023-07-24T23:13:52.506Z,96867.78
2023-07-24T23:23:54.963Z,96860.53
2023-07-24T23:33:57.473Z,96869.53
2023-07-24T23:43:59.811Z,96862.28
2023-07-24T23:54:02.213Z,96874.00
